Canterbury, New Hampshire
Current Conditions -  °F | °C
As of 9:12 AM on Tuesday 27 Jan 2015 (Local Time) from KCON Reporting Station
Haze Haze  
Wind Chill:   Ceiling: 700
Heat Index: 16°   Visibility: 0.25mi
Dew Point: 11°   Wind: 15mph
Humidity: 81%   Direction: 360°N
Pressure: 29.66"   Gusts: 25mph
Location:  43.34°N, 71.57°W
Report Text: KCON 271412Z AUTO 36013G22KT 1/4SM HZ VV007 M09/M12 A2966 RMK AO2 T10891117 PWINO FZRANO $
Loading
Personal Weather Stations






























Interactive Weather Map New forecast layout! Learn more

10-Day Weather Forecast

Advertisements
Track Severe Weather on mobile